Yamabishimaru No.11 — JD2897 — position and weather

sailwx.info

Track history (hours):
 
Tides and Currents Weather Stations Pressure Air Temp Water Temp Dewpoint Dewpoint Depression Visibility Wind Speed Wind Dir Waves Ship Positions

Yamabishimaru No.11

Last reported at 2018-Apr-23 13:30 UTC. Time now 2018-Apr-23 13:30 UTC.
Position N 35°36' E 140°06'.

Length 65 m; draft 3.5 m.

Type: Tanker. MMSI: 431000903.

Date/timePositionNaut miles runAvg speedWind from/ knotsBaromVisibWave heightAir tempDewpointWater temp
2018-Apr-23 13:30N 35°36' E 140°06'0 0.0
2018-Apr-23 13:00N 35°36' E 140°06'0 0.0
2018-Apr-23 12:30N 35°36' E 140°06'0 0.0
2018-Apr-23 12:00N 35°36' E 140°06'0 0.0
2018-Apr-23 11:30N 35°36' E 140°06'0 0.0
2018-Apr-23 11:00N 35°36' E 140°06'0 0.0
2018-Apr-23 10:30N 35°36' E 140°06'0 0.0
2018-Apr-23 10:00N 35°36' E 140°06'0 0.0
2018-Apr-23 09:30N 35°36' E 140°06'0 0.0
2018-Apr-23 09:00N 35°36' E 140°06'0 0.0
2018-Apr-23 08:30N 35°36' E 140°06'0 0.0
2018-Apr-23 08:00N 35°36' E 140°06'2 4.8
2018-Apr-23 07:30N 35°35' E 140°04'611.5
2018-Apr-23 07:00N 35°31' E 139°58'1 2.4
2018-Apr-23 06:30N 35°30' E 139°59'3 5.0
2018-Apr-23 06:00N 35°30' E 140°02'0 0.0
2018-Apr-23 05:30N 35°30' E 140°02'0 0.0
2018-Apr-23 05:00N 35°30' E 140°02'0 0.0
2018-Apr-23 04:30N 35°30' E 140°02'0 0.0
2018-Apr-23 04:00N 35°30' E 140°02'0 0.0
2018-Apr-23 03:30N 35°30' E 140°02'0 0.0
2018-Apr-23 03:00N 35°30' E 140°02'0 0.0
2018-Apr-23 02:30N 35°30' E 140°02'0 0.0
2018-Apr-23 02:00N 35°30' E 140°02'0 0.0
2018-Apr-23 01:30N 35°30' E 140°02'0 0.0
2018-Apr-23 01:00N 35°30' E 140°02'0 0.0
2018-Apr-23 00:30N 35°30' E 140°02'2 3.1
2018-Apr-23 00:00N 35°30' E 140°00'1 1.7
2018-Apr-22 23:30N 35°30' E 139°59'4 7.6
2018-Apr-22 23:00N 35°29' E 139°54'4 8.4
2018-Apr-22 22:31N 35°27' E 139°50'5 9.0
2018-Apr-22 22:00N 35°24' E 139°46'5 9.7
2018-Apr-22 21:30N 35°19' E 139°44'510.4
2018-Apr-22 21:00N 35°15' E 139°47'611.5
2018-Apr-22 20:30N 35°09' E 139°46'611.5
2018-Apr-22 20:00N 35°04' E 139°43'611.4
2018-Apr-22 19:30N 34°60' E 139°38'612.0
2018-Apr-22 19:00N 34°57' E 139°32'813.1
2018-Apr-22 18:22N 34°52' E 139°23'513.3
2018-Apr-22 17:58N 34°49' E 139°18'713.5
2018-Apr-22 17:27N 34°45' E 139°11'613.4
2018-Apr-22 16:59N 34°41' E 139°05'611.8
2018-Apr-22 16:29N 34°37' E 138°60'711.8
2018-Apr-22 15:56N 34°34' E 138°53'1211.9
2018-Apr-22 14:58N 34°32' E 138°39'611.7
2018-Apr-22 14:25N 34°31' E 138°31'611.4
2018-Apr-22 13:54N 34°30' E 138°24'711.6
2018-Apr-22 13:18N 34°29' E 138°16'512.0
2018-Apr-22 12:52N 34°28' E 138°10'3411.6
2018-Apr-22 09:56N 34°28' E 137°28'512.0
2018-Apr-22 09:30N 34°29' E 137°22'612.0
2018-Apr-22 09:00N 34°30' E 137°15'611.6
2018-Apr-22 08:28N 34°31' E 137°08'511.5
2018-Apr-22 08:00N 34°33' E 137°02'611.3
2018-Apr-22 07:30N 34°36' E 136°56'611.2
2018-Apr-22 07:00N 34°40' E 136°51'511.0
2018-Apr-22 06:30N 34°44' E 136°47'611.2
2018-Apr-22 06:00N 34°49' E 136°44'611.2
2018-Apr-22 05:30N 34°54' E 136°42'3 6.9
2018-Apr-22 05:00N 34°56' E 136°38'0 0.0
2018-Apr-22 04:30N 34°56' E 136°38'0 0.0
2018-Apr-22 03:53N 34°56' E 136°38'0 0.0
2018-Apr-22 03:30N 34°56' E 136°38'0 0.0
2018-Apr-22 03:00N 34°56' E 136°38'0 0.0
2018-Apr-22 02:30N 34°56' E 136°38'0 0.0
2018-Apr-22 01:59N 34°56' E 136°38'0 0.0
2018-Apr-22 01:30N 34°56' E 136°38'0 0.0
2018-Apr-22 00:35N 34°56' E 136°38'0 0.7
2018-Apr-22 00:23N 34°57' E 136°39'0 1.1
2018-Apr-22 00:00N 34°57' E 136°38'0 0.0
2018-Apr-21 23:30N 34°57' E 136°38'0 0.0
2018-Apr-21 23:00N 34°57' E 136°38'0 0.0
2018-Apr-21 22:30N 34°57' E 136°38'0 0.0
2018-Apr-21 22:00N 34°57' E 136°38'0 0.0
2018-Apr-21 21:30N 34°57' E 136°38'0 0.0
2018-Apr-21 21:00N 34°57' E 136°38'0 0.0
2018-Apr-21 20:30N 34°57' E 136°38'0 0.0
2018-Apr-21 20:00N 34°57' E 136°38'0 0.0
2018-Apr-21 19:30N 34°57' E 136°38'0 0.0
2018-Apr-21 19:00N 34°57' E 136°38'0 0.0
2018-Apr-21 18:30N 34°57' E 136°38'0 0.0
2018-Apr-21 18:00N 34°57' E 136°38'0 0.0
2018-Apr-21 17:30N 34°57' E 136°38'0 0.0
2018-Apr-21 17:00N 34°57' E 136°38'0 0.0
2018-Apr-21 16:24N 34°57' E 136°38'0 0.0
2018-Apr-21 16:00N 34°57' E 136°38'0 0.0
2018-Apr-21 15:30N 34°57' E 136°38'0 0.0
2018-Apr-21 15:00N 34°57' E 136°38'0 0.0
2018-Apr-21 14:30N 34°57' E 136°38'0 0.0
2018-Apr-21 14:00N 34°57' E 136°38'0 0.0
2018-Apr-21 13:30N 34°57' E 136°38'0 0.0
2018-Apr-21 13:00N 34°57' E 136°38'0 0.0
2018-Apr-21 12:30N 34°57' E 136°38'0 0.0
2018-Apr-21 12:00N 34°57' E 136°38'0 0.0
2018-Apr-21 11:30N 34°57' E 136°38'0 0.0
2018-Apr-21 10:48N 34°57' E 136°38'0 0.0
2018-Apr-21 10:24N 34°57' E 136°38'0 0.0
2018-Apr-21 10:00N 34°57' E 136°38'0 0.0
2018-Apr-21 09:30N 34°57' E 136°38'0 0.0
2018-Apr-21 09:00N 34°57' E 136°38'0 0.0
2018-Apr-21 08:30N 34°57' E 136°38'0 0.0
2018-Apr-21 08:00N 34°57' E 136°38'0 0.0
2018-Apr-21 07:30N 34°57' E 136°38'0 0.0
2018-Apr-21 07:00N 34°57' E 136°38'0 0.0
2018-Apr-21 06:30N 34°57' E 136°38'3 5.7
2018-Apr-21 06:00N 34°58' E 136°42'510.4
2018-Apr-21 05:30N 34°59' E 136°48'510.8
2018-Apr-21 05:00N 35°03' E 136°52'0 0.0
2018-Apr-21 04:30N 35°03' E 136°52'0 0.0
2018-Apr-21 04:00N 35°03' E 136°52'0 0.0
2018-Apr-21 03:30N 35°03' E 136°52'0 0.0
2018-Apr-21 03:00N 35°03' E 136°52'0 0.0
2018-Apr-21 02:30N 35°03' E 136°52'0 0.0
2018-Apr-21 02:00N 35°03' E 136°52'0 0.0
2018-Apr-21 01:30N 35°03' E 136°52'0 0.0
2018-Apr-21 01:00N 35°03' E 136°52'2 3.2
2018-Apr-21 00:30N 35°02' E 136°51'5 9.3
2018-Apr-21 00:00N 34°58' E 136°47'1 1.3
2018-Apr-20 23:30N 34°58' E 136°47'0 0.0
2018-Apr-20 22:57N 34°58' E 136°47'0 0.0
2018-Apr-20 22:30N 34°58' E 136°47'0 0.0
2018-Apr-20 22:00N 34°58' E 136°47'0 0.0
2018-Apr-20 21:30N 34°58' E 136°47'0 0.0
2018-Apr-20 21:00N 34°58' E 136°47'0 0.0
2018-Apr-20 20:29N 34°58' E 136°47'0 0.0
2018-Apr-20 19:59N 34°58' E 136°47'0 0.0
2018-Apr-20 19:30N 34°58' E 136°47'0 0.0
2018-Apr-20 19:00N 34°58' E 136°47'0 0.0
2018-Apr-20 18:30N 34°58' E 136°47'0 0.0
2018-Apr-20 18:00N 34°58' E 136°47'0 0.0
2018-Apr-20 17:30N 34°58' E 136°47'0 0.0
2018-Apr-20 17:00N 34°58' E 136°47'0 0.0
2018-Apr-20 16:30N 34°58' E 136°47'0 0.0
2018-Apr-20 16:00N 34°58' E 136°47'0 0.0
2018-Apr-20 15:30N 34°58' E 136°47'0 0.0
2018-Apr-20 15:00N 34°58' E 136°47'0 0.0
2018-Apr-20 14:30N 34°58' E 136°47'0 0.0
2018-Apr-20 13:59N 34°58' E 136°47'0 0.0
2018-Apr-20 13:30N 34°58' E 136°47'0 0.0
2018-Apr-20 12:57N 34°58' E 136°47'0 0.0
2018-Apr-20 12:29N 34°58' E 136°47'0 0.0
2018-Apr-20 11:59N 34°58' E 136°47'0 0.0
2018-Apr-20 11:30N 34°58' E 136°47'0 0.0
2018-Apr-20 10:59N 34°58' E 136°47'0 0.1
2018-Apr-20 10:30N 34°58' E 136°47'0 0.0
2018-Apr-20 09:59N 34°58' E 136°47'1 1.3
2018-Apr-20 09:30N 34°57' E 136°47'5 9.9
2018-Apr-20 09:00N 34°52' E 136°47'611.3
2018-Apr-20 08:30N 34°46' E 136°48'611.6
2018-Apr-20 07:57N 34°41' E 136°52'1710.9
2018-Apr-20 06:22N 34°33' E 137°10'5511.1
2018-Apr-20 01:26N 34°34' E 138°17'911.4
2018-Apr-20 00:41N 34°34' E 138°27'1311.3
2018-Apr-19 23:30N 34°35' E 138°43'911.5
2018-Apr-19 22:43N 34°36' E 138°54'412.0
2018-Apr-19 22:21N 34°38' E 138°59'712.0
2018-Apr-19 21:48N 34°42' E 139°05'511.6
2018-Apr-19 21:23N 34°44' E 139°10'3110.2
2018-Apr-19 18:23N 34°51' E 139°46'1510.3
2018-Apr-19 16:59N 34°56' E 140°03'9 0.4
2018-Apr-18 18:19N 35°02' E 140°11'411.2
2018-Apr-18 18:00N 34°60' E 140°08'611.0
2018-Apr-18 17:30N 34°56' E 140°02'1110.4
2018-Apr-18 16:27N 34°53' E 139°50'5 9.8
2018-Apr-18 15:54N 34°56' E 139°45'511.1
2018-Apr-18 15:29N 35°01' E 139°44'511.3
2018-Apr-18 15:00N 35°06' E 139°45'612.2
2018-Apr-18 14:30N 35°12' E 139°46'611.3
2018-Apr-18 14:00N 35°18' E 139°44'510.7
2018-Apr-18 13:30N 35°23' E 139°42'510.2
2018-Apr-18 13:00N 35°27' E 139°46'510.8
2018-Apr-18 12:30N 35°30' E 139°52'510.1
2018-Apr-18 12:00N 35°31' E 139°58'4 7.6
2018-Apr-18 11:30N 35°30' E 140°02'0 0.0
2018-Apr-18 11:00N 35°30' E 140°02'0 0.0
2018-Apr-18 10:30N 35°30' E 140°02'0 0.0
2018-Apr-18 10:00N 35°30' E 140°02'0 0.0
2018-Apr-18 09:30N 35°30' E 140°02'0 0.0
2018-Apr-18 09:00N 35°30' E 140°02'0 0.0
2018-Apr-18 08:27N 35°30' E 140°02'0 0.0
2018-Apr-18 08:00N 35°30' E 140°02'0 0.0
2018-Apr-18 07:29N 35°30' E 140°02'0 0.0
2018-Apr-18 07:00N 35°30' E 140°02'0 0.0
2018-Apr-18 06:30N 35°30' E 140°02'0 0.0
2018-Apr-18 06:00N 35°30' E 140°02'0 0.0
2018-Apr-18 05:30N 35°30' E 140°02'1 2.9
2018-Apr-18 05:00N 35°30' E 140°00'2 1.1
2018-Apr-18 03:29N 35°28' E 140°01'0 0.0
2018-Apr-17 21:41N 35°28' E 140°01'0 1.7
2018-Apr-17 21:30N 35°29' E 140°01'2 4.0
2018-Apr-17 20:59N 35°30' E 139°59'0 0.0
2018-Apr-17 20:29N 35°30' E 139°59'0 0.0
2018-Apr-17 19:56N 35°30' E 139°59'0 0.0
2018-Apr-17 19:29N 35°30' E 139°59'0 0.0
2018-Apr-17 18:59N 35°30' E 139°59'0 0.0
2018-Apr-17 18:26N 35°30' E 139°59'0 0.0
2018-Apr-17 17:59N 35°30' E 139°59'0 0.0
2018-Apr-17 17:29N 35°30' E 139°59'0 0.0
2018-Apr-17 16:59N 35°30' E 139°59'0 0.0
2018-Apr-17 16:29N 35°30' E 139°59'0 0.0
2018-Apr-17 15:59N 35°30' E 139°59'0 0.0
2018-Apr-17 15:26N 35°30' E 139°59'0 0.0
2018-Apr-17 14:56N 35°30' E 139°59'0 0.0
2018-Apr-17 14:29N 35°30' E 139°59'0 0.0
2018-Apr-17 13:59N 35°30' E 139°59'0 0.0
2018-Apr-17 13:29N 35°30' E 139°59'0 0.0
2018-Apr-17 12:59N 35°30' E 139°59'0 0.1
2018-Apr-17 12:29N 35°29' E 139°59'0 0.0
2018-Apr-17 11:59N 35°29' E 139°59'0 0.0
2018-Apr-17 11:26N 35°29' E 139°59'0 0.0
2018-Apr-17 10:44N 35°29' E 139°59'0 0.0
2018-Apr-17 10:26N 35°29' E 139°59'0 0.0
2018-Apr-17 09:59N 35°29' E 139°59'0 0.0
2018-Apr-17 09:26N 35°29' E 139°59'0 0.0
2018-Apr-17 08:59N 35°29' E 139°59'0 0.0
2018-Apr-17 08:29N 35°29' E 139°59'0 0.0
2018-Apr-17 07:56N 35°29' E 139°59'0 0.0
2018-Apr-17 07:30N 35°29' E 139°59'5 9.8
2018-Apr-17 07:00N 35°30' E 139°53'3 6.4
2018-Apr-17 06:30N 35°29' E 139°49'0 0.1
2018-Apr-17 06:00N 35°29' E 139°49'3 6.2
2018-Apr-17 05:30N 35°31' E 139°46'0 0.0
2018-Apr-17 05:00N 35°31' E 139°46'0 0.0
2018-Apr-17 04:30N 35°31' E 139°46'0 0.0
2018-Apr-17 04:00N 35°31' E 139°46'0 0.0
2018-Apr-17 03:30N 35°31' E 139°46'0 0.0
2018-Apr-17 03:00N 35°31' E 139°46'0 0.0
2018-Apr-17 02:30N 35°31' E 139°46'0 0.0
2018-Apr-17 02:00N 35°31' E 139°46'0 0.0
2018-Apr-17 01:30N 35°31' E 139°46'0 0.0
2018-Apr-17 00:58N 35°31' E 139°46'0 0.0
2018-Apr-17 00:30N 35°31' E 139°46'0 0.0
2018-Apr-16 23:55N 35°31' E 139°46'0 0.0
2018-Apr-16 23:30N 35°31' E 139°46'0 0.0
2018-Apr-16 23:00N 35°31' E 139°46'2 3.8
2018-Apr-16 22:30N 35°30' E 139°48'1 2.7
2018-Apr-16 21:59N 35°29' E 139°49'0 0.0
2018-Apr-16 21:29N 35°29' E 139°49'0 0.0
2018-Apr-16 20:59N 35°29' E 139°49'0 0.0
2018-Apr-16 20:29N 35°29' E 139°49'0 0.0
2018-Apr-16 19:59N 35°29' E 139°49'0 0.0
2018-Apr-16 19:29N 35°29' E 139°49'0 0.0
2018-Apr-16 18:59N 35°29' E 139°49'0 0.0
2018-Apr-16 18:26N 35°29' E 139°49'0 0.0
2018-Apr-16 17:59N 35°29' E 139°49'0 0.0
2018-Apr-16 17:29N 35°29' E 139°49'0 0.0
2018-Apr-16 16:59N 35°29' E 139°49'0 0.1
2018-Apr-16 16:31N 35°29' E 139°49'5 9.8
2018-Apr-16 16:00N 35°24' E 139°46'611.8
2018-Apr-16 15:30N 35°19' E 139°44'611.1
2018-Apr-16 15:00N 35°14' E 139°47'611.1
2018-Apr-16 14:30N 35°08' E 139°45'611.6
2018-Apr-16 14:00N 35°03' E 139°42'611.3
2018-Apr-16 13:30N 34°60' E 139°36'811.9
2018-Apr-16 12:48N 34°55' E 139°28'512.3
2018-Apr-16 12:25N 34°52' E 139°23'512.3
2018-Apr-16 11:59N 34°49' E 139°18'612.0
2018-Apr-16 11:28N 34°45' E 139°12'511.5
2018-Apr-16 11:00N 34°42' E 139°07'510.9
2018-Apr-16 10:30N 34°39' E 139°02'610.7
2018-Apr-16 09:57N 34°35' E 138°56'511.5
2018-Apr-16 09:30N 34°33' E 138°50'1211.3
2018-Apr-16 08:28N 34°30' E 138°36'611.2
2018-Apr-16 07:59N 34°29' E 138°30'2111.8
2018-Apr-16 06:11N 34°24' E 138°05'152 9.7
2018-Apr-15 14:28N 33°49' E 135°05'612.0
2018-Apr-15 14:00N 33°53' E 135°01'611.9
2018-Apr-15 13:30N 33°59' E 135°00'611.7
2018-Apr-15 13:00N 34°05' E 134°59'611.6
2018-Apr-15 12:30N 34°11' E 134°59'611.3
2018-Apr-15 12:00N 34°16' E 134°59'5 9.9
2018-Apr-15 11:30N 34°21' E 134°59'611.1
2018-Apr-15 11:00N 34°27' E 135°01'511.0
2018-Apr-15 10:30N 34°32' E 135°03'4 8.5
2018-Apr-15 10:00N 34°36' E 135°02'4 7.3
2018-Apr-15 09:30N 34°37' E 134°58'5 9.9
2018-Apr-15 09:00N 34°34' E 134°52'610.8
2018-Apr-15 08:28N 34°32' E 134°46'511.1
2018-Apr-15 08:00N 34°30' E 134°40'611.4
2018-Apr-15 07:30N 34°28' E 134°34'94 4.2
2018-Apr-14 09:18N 34°00' E 132°45'412.6
2018-Apr-14 09:00N 33°57' E 132°43'4511.7
2018-Apr-14 05:07N 33°29' E 131°60'110.7
2018-Apr-14 05:00N 33°29' E 131°59'510.7
2018-Apr-14 04:30N 33°25' E 131°54'711.2
2018-Apr-14 03:55N 33°22' E 131°47'511.7
2018-Apr-14 03:29N 33°19' E 131°42'3 6.0
2018-Apr-14 02:59N 33°16' E 131°40'0 0.0
2018-Apr-14 02:30N 33°16' E 131°40'0 0.0
2018-Apr-14 02:00N 33°16' E 131°40'0 0.0
2018-Apr-14 01:29N 33°16' E 131°40'0 0.0
2018-Apr-14 01:00N 33°16' E 131°40'0 0.0
2018-Apr-14 00:30N 33°16' E 131°40'0 0.0
2018-Apr-13 23:19N 33°16' E 131°40'0 0.7
2018-Apr-13 23:00N 33°16' E 131°40'  
Track history (hours):
 
Tides and Currents Weather Stations Pressure Air Temp Water Temp Dewpoint Dewpoint Depression Visibility Wind Speed Wind Dir Waves Ship Positions

Yamabishimaru No.11

Last reported at 2018-Apr-23 13:30 UTC. Time now 2018-Apr-23 13:30 UTC.
Position N 35°36' E 140°06'.

Length 65 m; draft 3.5 m.

Type: Tanker. MMSI: 431000903.

Date/timePositionNaut miles runAvg speedWind from/ knotsBaromVisibWave heightAir tempDewpointWater temp
2018-Apr-23 13:30N 35°36' E 140°06'0 0.0
2018-Apr-23 13:00N 35°36' E 140°06'0 0.0
2018-Apr-23 12:30N 35°36' E 140°06'0 0.0
2018-Apr-23 12:00N 35°36' E 140°06'0 0.0
2018-Apr-23 11:30N 35°36' E 140°06'0 0.0
2018-Apr-23 11:00N 35°36' E 140°06'0 0.0
2018-Apr-23 10:30N 35°36' E 140°06'0 0.0
2018-Apr-23 10:00N 35°36' E 140°06'0 0.0
2018-Apr-23 09:30N 35°36' E 140°06'0 0.0
2018-Apr-23 09:00N 35°36' E 140°06'0 0.0
2018-Apr-23 08:30N 35°36' E 140°06'0 0.0
2018-Apr-23 08:00N 35°36' E 140°06'2 4.8
2018-Apr-23 07:30N 35°35' E 140°04'611.5
2018-Apr-23 07:00N 35°31' E 139°58'1 2.4
2018-Apr-23 06:30N 35°30' E 139°59'3 5.0
2018-Apr-23 06:00N 35°30' E 140°02'0 0.0
2018-Apr-23 05:30N 35°30' E 140°02'0 0.0
2018-Apr-23 05:00N 35°30' E 140°02'0 0.0
2018-Apr-23 04:30N 35°30' E 140°02'0 0.0
2018-Apr-23 04:00N 35°30' E 140°02'0 0.0
2018-Apr-23 03:30N 35°30' E 140°02'0 0.0
2018-Apr-23 03:00N 35°30' E 140°02'0 0.0
2018-Apr-23 02:30N 35°30' E 140°02'0 0.0
2018-Apr-23 02:00N 35°30' E 140°02'0 0.0
2018-Apr-23 01:30N 35°30' E 140°02'0 0.0
2018-Apr-23 01:00N 35°30' E 140°02'0 0.0
2018-Apr-23 00:30N 35°30' E 140°02'2 3.1
2018-Apr-23 00:00N 35°30' E 140°00'1 1.7
2018-Apr-22 23:30N 35°30' E 139°59'4 7.6
2018-Apr-22 23:00N 35°29' E 139°54'4 8.4
2018-Apr-22 22:31N 35°27' E 139°50'5 9.0
2018-Apr-22 22:00N 35°24' E 139°46'5 9.7
2018-Apr-22 21:30N 35°19' E 139°44'510.4
2018-Apr-22 21:00N 35°15' E 139°47'611.5
2018-Apr-22 20:30N 35°09' E 139°46'611.5
2018-Apr-22 20:00N 35°04' E 139°43'611.4
2018-Apr-22 19:30N 34°60' E 139°38'612.0
2018-Apr-22 19:00N 34°57' E 139°32'813.1
2018-Apr-22 18:22N 34°52' E 139°23'513.3
2018-Apr-22 17:58N 34°49' E 139°18'713.5
2018-Apr-22 17:27N 34°45' E 139°11'613.4
2018-Apr-22 16:59N 34°41' E 139°05'611.8
2018-Apr-22 16:29N 34°37' E 138°60'711.8
2018-Apr-22 15:56N 34°34' E 138°53'1211.9
2018-Apr-22 14:58N 34°32' E 138°39'611.7
2018-Apr-22 14:25N 34°31' E 138°31'611.4
2018-Apr-22 13:54N 34°30' E 138°24'711.6
2018-Apr-22 13:18N 34°29' E 138°16'512.0
2018-Apr-22 12:52N 34°28' E 138°10'3411.6
2018-Apr-22 09:56N 34°28' E 137°28'512.0
2018-Apr-22 09:30N 34°29' E 137°22'612.0
2018-Apr-22 09:00N 34°30' E 137°15'611.6
2018-Apr-22 08:28N 34°31' E 137°08'511.5
2018-Apr-22 08:00N 34°33' E 137°02'611.3
2018-Apr-22 07:30N 34°36' E 136°56'611.2
2018-Apr-22 07:00N 34°40' E 136°51'511.0
2018-Apr-22 06:30N 34°44' E 136°47'611.2
2018-Apr-22 06:00N 34°49' E 136°44'611.2
2018-Apr-22 05:30N 34°54' E 136°42'3 6.9
2018-Apr-22 05:00N 34°56' E 136°38'0 0.0
2018-Apr-22 04:30N 34°56' E 136°38'0 0.0
2018-Apr-22 03:53N 34°56' E 136°38'0 0.0
2018-Apr-22 03:30N 34°56' E 136°38'0 0.0
2018-Apr-22 03:00N 34°56' E 136°38'0 0.0
2018-Apr-22 02:30N 34°56' E 136°38'0 0.0
2018-Apr-22 01:59N 34°56' E 136°38'0 0.0
2018-Apr-22 01:30N 34°56' E 136°38'0 0.0
2018-Apr-22 00:35N 34°56' E 136°38'0 0.7
2018-Apr-22 00:23N 34°57' E 136°39'0 1.1
2018-Apr-22 00:00N 34°57' E 136°38'0 0.0
2018-Apr-21 23:30N 34°57' E 136°38'0 0.0
2018-Apr-21 23:00N 34°57' E 136°38'0 0.0
2018-Apr-21 22:30N 34°57' E 136°38'0 0.0
2018-Apr-21 22:00N 34°57' E 136°38'0 0.0
2018-Apr-21 21:30N 34°57' E 136°38'0 0.0
2018-Apr-21 21:00N 34°57' E 136°38'0 0.0
2018-Apr-21 20:30N 34°57' E 136°38'0 0.0
2018-Apr-21 20:00N 34°57' E 136°38'0 0.0
2018-Apr-21 19:30N 34°57' E 136°38'0 0.0
2018-Apr-21 19:00N 34°57' E 136°38'0 0.0
2018-Apr-21 18:30N 34°57' E 136°38'0 0.0
2018-Apr-21 18:00N 34°57' E 136°38'0 0.0
2018-Apr-21 17:30N 34°57' E 136°38'0 0.0
2018-Apr-21 17:00N 34°57' E 136°38'0 0.0
2018-Apr-21 16:24N 34°57' E 136°38'0 0.0
2018-Apr-21 16:00N 34°57' E 136°38'0 0.0
2018-Apr-21 15:30N 34°57' E 136°38'0 0.0
2018-Apr-21 15:00N 34°57' E 136°38'0 0.0
2018-Apr-21 14:30N 34°57' E 136°38'0 0.0
2018-Apr-21 14:00N 34°57' E 136°38'0 0.0
2018-Apr-21 13:30N 34°57' E 136°38'0 0.0
2018-Apr-21 13:00N 34°57' E 136°38'0 0.0
2018-Apr-21 12:30N 34°57' E 136°38'0 0.0
2018-Apr-21 12:00N 34°57' E 136°38'0 0.0
2018-Apr-21 11:30N 34°57' E 136°38'0 0.0
2018-Apr-21 10:48N 34°57' E 136°38'0 0.0
2018-Apr-21 10:24N 34°57' E 136°38'0 0.0
2018-Apr-21 10:00N 34°57' E 136°38'0 0.0
2018-Apr-21 09:30N 34°57' E 136°38'0 0.0
2018-Apr-21 09:00N 34°57' E 136°38'0 0.0
2018-Apr-21 08:30N 34°57' E 136°38'0 0.0
2018-Apr-21 08:00N 34°57' E 136°38'0 0.0
2018-Apr-21 07:30N 34°57' E 136°38'0 0.0
2018-Apr-21 07:00N 34°57' E 136°38'0 0.0
2018-Apr-21 06:30N 34°57' E 136°38'3 5.7
2018-Apr-21 06:00N 34°58' E 136°42'510.4
2018-Apr-21 05:30N 34°59' E 136°48'510.8
2018-Apr-21 05:00N 35°03' E 136°52'0 0.0
2018-Apr-21 04:30N 35°03' E 136°52'0 0.0
2018-Apr-21 04:00N 35°03' E 136°52'0 0.0
2018-Apr-21 03:30N 35°03' E 136°52'0 0.0
2018-Apr-21 03:00N 35°03' E 136°52'0 0.0
2018-Apr-21 02:30N 35°03' E 136°52'0 0.0
2018-Apr-21 02:00N 35°03' E 136°52'0 0.0
2018-Apr-21 01:30N 35°03' E 136°52'0 0.0
2018-Apr-21 01:00N 35°03' E 136°52'2 3.2
2018-Apr-21 00:30N 35°02' E 136°51'5 9.3
2018-Apr-21 00:00N 34°58' E 136°47'1 1.3
2018-Apr-20 23:30N 34°58' E 136°47'0 0.0
2018-Apr-20 22:57N 34°58' E 136°47'0 0.0
2018-Apr-20 22:30N 34°58' E 136°47'0 0.0
2018-Apr-20 22:00N 34°58' E 136°47'0 0.0
2018-Apr-20 21:30N 34°58' E 136°47'0 0.0
2018-Apr-20 21:00N 34°58' E 136°47'0 0.0
2018-Apr-20 20:29N 34°58' E 136°47'0 0.0
2018-Apr-20 19:59N 34°58' E 136°47'0 0.0
2018-Apr-20 19:30N 34°58' E 136°47'0 0.0
2018-Apr-20 19:00N 34°58' E 136°47'0 0.0
2018-Apr-20 18:30N 34°58' E 136°47'0 0.0
2018-Apr-20 18:00N 34°58' E 136°47'0 0.0
2018-Apr-20 17:30N 34°58' E 136°47'0 0.0
2018-Apr-20 17:00N 34°58' E 136°47'0 0.0
2018-Apr-20 16:30N 34°58' E 136°47'0 0.0
2018-Apr-20 16:00N 34°58' E 136°47'0 0.0
2018-Apr-20 15:30N 34°58' E 136°47'0 0.0
2018-Apr-20 15:00N 34°58' E 136°47'0 0.0
2018-Apr-20 14:30N 34°58' E 136°47'0 0.0
2018-Apr-20 13:59N 34°58' E 136°47'0 0.0
2018-Apr-20 13:30N 34°58' E 136°47'0 0.0
2018-Apr-20 12:57N 34°58' E 136°47'0 0.0
2018-Apr-20 12:29N 34°58' E 136°47'0 0.0
2018-Apr-20 11:59N 34°58' E 136°47'0 0.0
2018-Apr-20 11:30N 34°58' E 136°47'0 0.0
2018-Apr-20 10:59N 34°58' E 136°47'0 0.1
2018-Apr-20 10:30N 34°58' E 136°47'0 0.0
2018-Apr-20 09:59N 34°58' E 136°47'1 1.3
2018-Apr-20 09:30N 34°57' E 136°47'5 9.9
2018-Apr-20 09:00N 34°52' E 136°47'611.3
2018-Apr-20 08:30N 34°46' E 136°48'611.6
2018-Apr-20 07:57N 34°41' E 136°52'1710.9
2018-Apr-20 06:22N 34°33' E 137°10'5511.1
2018-Apr-20 01:26N 34°34' E 138°17'911.4
2018-Apr-20 00:41N 34°34' E 138°27'1311.3
2018-Apr-19 23:30N 34°35' E 138°43'911.5
2018-Apr-19 22:43N 34°36' E 138°54'412.0
2018-Apr-19 22:21N 34°38' E 138°59'712.0
2018-Apr-19 21:48N 34°42' E 139°05'511.6
2018-Apr-19 21:23N 34°44' E 139°10'3110.2
2018-Apr-19 18:23N 34°51' E 139°46'1510.3
2018-Apr-19 16:59N 34°56' E 140°03'9 0.4
2018-Apr-18 18:19N 35°02' E 140°11'411.2
2018-Apr-18 18:00N 34°60' E 140°08'611.0
2018-Apr-18 17:30N 34°56' E 140°02'1110.4
2018-Apr-18 16:27N 34°53' E 139°50'5 9.8
2018-Apr-18 15:54N 34°56' E 139°45'511.1
2018-Apr-18 15:29N 35°01' E 139°44'511.3
2018-Apr-18 15:00N 35°06' E 139°45'612.2
2018-Apr-18 14:30N 35°12' E 139°46'611.3
2018-Apr-18 14:00N 35°18' E 139°44'510.7
2018-Apr-18 13:30N 35°23' E 139°42'510.2
2018-Apr-18 13:00N 35°27' E 139°46'510.8
2018-Apr-18 12:30N 35°30' E 139°52'510.1
2018-Apr-18 12:00N 35°31' E 139°58'4 7.6
2018-Apr-18 11:30N 35°30' E 140°02'0 0.0
2018-Apr-18 11:00N 35°30' E 140°02'0 0.0
2018-Apr-18 10:30N 35°30' E 140°02'0 0.0
2018-Apr-18 10:00N 35°30' E 140°02'0 0.0
2018-Apr-18 09:30N 35°30' E 140°02'0 0.0
2018-Apr-18 09:00N 35°30' E 140°02'0 0.0
2018-Apr-18 08:27N 35°30' E 140°02'0 0.0
2018-Apr-18 08:00N 35°30' E 140°02'0 0.0
2018-Apr-18 07:29N 35°30' E 140°02'0 0.0
2018-Apr-18 07:00N 35°30' E 140°02'0 0.0
2018-Apr-18 06:30N 35°30' E 140°02'0 0.0
2018-Apr-18 06:00N 35°30' E 140°02'0 0.0
2018-Apr-18 05:30N 35°30' E 140°02'1 2.9
2018-Apr-18 05:00N 35°30' E 140°00'2 1.1
2018-Apr-18 03:29N 35°28' E 140°01'0 0.0
2018-Apr-17 21:41N 35°28' E 140°01'0 1.7
2018-Apr-17 21:30N 35°29' E 140°01'2 4.0
2018-Apr-17 20:59N 35°30' E 139°59'0 0.0
2018-Apr-17 20:29N 35°30' E 139°59'0 0.0
2018-Apr-17 19:56N 35°30' E 139°59'0 0.0
2018-Apr-17 19:29N 35°30' E 139°59'0 0.0
2018-Apr-17 18:59N 35°30' E 139°59'0 0.0
2018-Apr-17 18:26N 35°30' E 139°59'0 0.0
2018-Apr-17 17:59N 35°30' E 139°59'0 0.0
2018-Apr-17 17:29N 35°30' E 139°59'0 0.0
2018-Apr-17 16:59N 35°30' E 139°59'0 0.0
2018-Apr-17 16:29N 35°30' E 139°59'0 0.0
2018-Apr-17 15:59N 35°30' E 139°59'0 0.0
2018-Apr-17 15:26N 35°30' E 139°59'0 0.0
2018-Apr-17 14:56N 35°30' E 139°59'0 0.0
2018-Apr-17 14:29N 35°30' E 139°59'0 0.0
2018-Apr-17 13:59N 35°30' E 139°59'0 0.0
2018-Apr-17 13:29N 35°30' E 139°59'0 0.0
2018-Apr-17 12:59N 35°30' E 139°59'0 0.1
2018-Apr-17 12:29N 35°29' E 139°59'0 0.0
2018-Apr-17 11:59N 35°29' E 139°59'0 0.0
2018-Apr-17 11:26N 35°29' E 139°59'0 0.0
2018-Apr-17 10:44N 35°29' E 139°59'0 0.0
2018-Apr-17 10:26N 35°29' E 139°59'0 0.0
2018-Apr-17 09:59N 35°29' E 139°59'0 0.0
2018-Apr-17 09:26N 35°29' E 139°59'0 0.0
2018-Apr-17 08:59N 35°29' E 139°59'0 0.0
2018-Apr-17 08:29N 35°29' E 139°59'0 0.0
2018-Apr-17 07:56N 35°29' E 139°59'0 0.0
2018-Apr-17 07:30N 35°29' E 139°59'5 9.8
2018-Apr-17 07:00N 35°30' E 139°53'3 6.4
2018-Apr-17 06:30N 35°29' E 139°49'0 0.1
2018-Apr-17 06:00N 35°29' E 139°49'3 6.2
2018-Apr-17 05:30N 35°31' E 139°46'0 0.0
2018-Apr-17 05:00N 35°31' E 139°46'0 0.0
2018-Apr-17 04:30N 35°31' E 139°46'0 0.0
2018-Apr-17 04:00N 35°31' E 139°46'0 0.0
2018-Apr-17 03:30N 35°31' E 139°46'0 0.0
2018-Apr-17 03:00N 35°31' E 139°46'0 0.0
2018-Apr-17 02:30N 35°31' E 139°46'0 0.0
2018-Apr-17 02:00N 35°31' E 139°46'0 0.0
2018-Apr-17 01:30N 35°31' E 139°46'0 0.0
2018-Apr-17 00:58N 35°31' E 139°46'0 0.0
2018-Apr-17 00:30N 35°31' E 139°46'0 0.0
2018-Apr-16 23:55N 35°31' E 139°46'0 0.0
2018-Apr-16 23:30N 35°31' E 139°46'0 0.0
2018-Apr-16 23:00N 35°31' E 139°46'2 3.8
2018-Apr-16 22:30N 35°30' E 139°48'1 2.7
2018-Apr-16 21:59N 35°29' E 139°49'0 0.0
2018-Apr-16 21:29N 35°29' E 139°49'0 0.0
2018-Apr-16 20:59N 35°29' E 139°49'0 0.0
2018-Apr-16 20:29N 35°29' E 139°49'0 0.0
2018-Apr-16 19:59N 35°29' E 139°49'0 0.0
2018-Apr-16 19:29N 35°29' E 139°49'0 0.0
2018-Apr-16 18:59N 35°29' E 139°49'0 0.0
2018-Apr-16 18:26N 35°29' E 139°49'0 0.0
2018-Apr-16 17:59N 35°29' E 139°49'0 0.0
2018-Apr-16 17:29N 35°29' E 139°49'0 0.0
2018-Apr-16 16:59N 35°29' E 139°49'0 0.1
2018-Apr-16 16:31N 35°29' E 139°49'5 9.8
2018-Apr-16 16:00N 35°24' E 139°46'611.8
2018-Apr-16 15:30N 35°19' E 139°44'611.1
2018-Apr-16 15:00N 35°14' E 139°47'611.1
2018-Apr-16 14:30N 35°08' E 139°45'611.6
2018-Apr-16 14:00N 35°03' E 139°42'611.3
2018-Apr-16 13:30N 34°60' E 139°36'811.9
2018-Apr-16 12:48N 34°55' E 139°28'512.3
2018-Apr-16 12:25N 34°52' E 139°23'512.3
2018-Apr-16 11:59N 34°49' E 139°18'612.0
2018-Apr-16 11:28N 34°45' E 139°12'511.5
2018-Apr-16 11:00N 34°42' E 139°07'510.9
2018-Apr-16 10:30N 34°39' E 139°02'610.7
2018-Apr-16 09:57N 34°35' E 138°56'511.5
2018-Apr-16 09:30N 34°33' E 138°50'1211.3
2018-Apr-16 08:28N 34°30' E 138°36'611.2
2018-Apr-16 07:59N 34°29' E 138°30'2111.8
2018-Apr-16 06:11N 34°24' E 138°05'152 9.7
2018-Apr-15 14:28N 33°49' E 135°05'612.0
2018-Apr-15 14:00N 33°53' E 135°01'611.9
2018-Apr-15 13:30N 33°59' E 135°00'611.7
2018-Apr-15 13:00N 34°05' E 134°59'611.6
2018-Apr-15 12:30N 34°11' E 134°59'611.3
2018-Apr-15 12:00N 34°16' E 134°59'5 9.9
2018-Apr-15 11:30N 34°21' E 134°59'611.1
2018-Apr-15 11:00N 34°27' E 135°01'511.0
2018-Apr-15 10:30N 34°32' E 135°03'4 8.5
2018-Apr-15 10:00N 34°36' E 135°02'4 7.3
2018-Apr-15 09:30N 34°37' E 134°58'5 9.9
2018-Apr-15 09:00N 34°34' E 134°52'610.8
2018-Apr-15 08:28N 34°32' E 134°46'511.1
2018-Apr-15 08:00N 34°30' E 134°40'611.4
2018-Apr-15 07:30N 34°28' E 134°34'94 4.2
2018-Apr-14 09:18N 34°00' E 132°45'412.6
2018-Apr-14 09:00N 33°57' E 132°43'4511.7
2018-Apr-14 05:07N 33°29' E 131°60'110.7
2018-Apr-14 05:00N 33°29' E 131°59'510.7
2018-Apr-14 04:30N 33°25' E 131°54'711.2
2018-Apr-14 03:55N 33°22' E 131°47'511.7
2018-Apr-14 03:29N 33°19' E 131°42'3 6.0
2018-Apr-14 02:59N 33°16' E 131°40'0 0.0
2018-Apr-14 02:30N 33°16' E 131°40'0 0.0
2018-Apr-14 02:00N 33°16' E 131°40'0 0.0
2018-Apr-14 01:29N 33°16' E 131°40'0 0.0
2018-Apr-14 01:00N 33°16' E 131°40'0 0.0
2018-Apr-14 00:30N 33°16' E 131°40'0 0.0
2018-Apr-13 23:19N 33°16' E 131°40'0 0.7
2018-Apr-13 23:00N 33°16' E 131°40'  

Dump ship's entire track history